This demonstration page uses our WeatherBlox Daily Observations layout. Learn more.

38.89511, -77.03637

Hourly Observations for April 27, 2015

Temp ( °F °C ) Dew Point ( °F °C ) Humidity (%) Winds ( mph kmh ) Pressure ( in mb ) Visibility ( mi km ) Precip ( " mm )
12:52 am 00:52 Partly Cloudy 50 10 39 4 67 67 NNW 5 7 29.74 1007 10 16.09344 0 0
1:52 am 01:52 Partly Cloudy 54 12 32 0 44 44 NNE 16 26 29.74 1007 10 16.09344 0 0
2:52 am 02:52 Partly Cloudy 52 11 32 0 47 47 NNE 7 11 29.74 1007 10 16.09344 0 0
3:52 am 03:52 Partly Cloudy 50 10 34 1 54 54 N 7 11 29.74 1007 10 16.09344 0 0
4:52 am 04:52 Mostly Cloudy 48 9 32 0 54 54 N 6 9 29.77 1008 10 16.09344 0 0
5:52 am 05:52 Partly Cloudy 48 9 32 0 54 54 NNW 9 15 29.77 1008 10 16.09344 0 0
6:52 am 06:52 Mostly Cloudy 48 9 34 1 58 58 NNW 9 15 29.77 1008 10 16.09344 0 0
7:52 am 07:52 Partly Cloudy 54 12 32 0 44 44 NW 12 19 29.8 1009 10 16.09344 0 0
8:52 am 08:52 Partly Cloudy 55 13 34 1 44 44 NNW 13 20 29.8 1009 10 16.09344 0 0
9:52 am 09:52 Mostly Cloudy 57 14 36 2 44 44 N 12 19 29.8 1009 10 16.09344 0 0
10:52 am 10:52 Mostly Cloudy 59 15 36 2 42 42 N 9 15 29.8 1009 10 16.09344 0 0
11:52 am 11:52 Mostly Cloudy 61 16 36 2 39 39 N 10 17 29.8 1009 10 16.09344 0 0
12:52 pm 12:52 Cloudy 57 14 36 2 44 44 NNW 15 24 29.8 1009 10 16.09344 0 0
1:52 pm 13:52 Cloudy 57 14 34 1 41 41 NW 13 20 29.8 1009 10 16.09344 0 0
2:52 pm 14:52 Mostly Cloudy 61 16 36 2 39 39 WNW 15 24 29.8 1009 10 16.09344 0 0
3:52 pm 15:52 Partly Cloudy 63 17 34 1 34 34 WNW 17 28 29.77 1008 10 16.09344 0 0
4:52 pm 16:52 Mostly Cloudy 61 16 32 0 34 34 WNW 16 26 29.77 1008 10 16.09344 0 0
5:52 pm 17:52 Mostly Cloudy 61 16 32 0 34 34 WNW 15 24 29.8 1009 10 16.09344 0 0
6:52 pm 18:52 Cloudy 59 15 34 1 39 39 NNW 15 24 29.83 1010 10 16.09344 0 0
7:47 pm 19:47 Cloudy with Light Rain 57 14 37 3 48 48 NNW 20 31 29.83 1010 10 16.09344 0.001 0.001
7:52 pm 19:52 Cloudy with Light Rain 57 14 37 3 48 48 NNW 20 31 29.85 1011 10 16.09344 0.001 0.001
8:52 pm 20:52 Cloudy 55 13 37 3 51 51 N 12 19 29.85 1011 10 16.09344 0.001 0.001
9:52 pm 21:52 Cloudy 54 12 39 4 58 58 NW 9 15 29.88 1012 10 16.09344 0 0
10:52 pm 22:52 Mostly Cloudy 54 12 37 3 54 54 NW 17 28 29.88 1012 10 16.09344 0 0
11:52 pm 23:52 Partly Cloudy 52 11 37 3 58 58 NW 14 22 29.91 1013 10 16.09344 0 0

Powered by AerisWeather